Time;durP1;ratioP1;P1;durP2;ratioP2;P2;SDS_P1;SDS_P2;PMS_P1;PMS_P2;Temp;Humidity;BMP_temperature;BMP_pressure;BME280_temperature;BME280_humidity;BME280_pressure;Samples;Min_cycle;Max_cycle;Signal;HPM_P1;HPM_P2
2022/03/16 00:02:02;;;;;;;12.15;9.35;;;8.10;72.40;;;;;;5048510;28;20047;-75
2022/03/16 00:04:27;;;;;;;11.93;8.65;;;8.10;72.20;;;;;;5048627;28;20442;-75
2022/03/16 00:06:53;;;;;;;11.20;9.13;;;8.00;72.30;;;;;;5048038;28;20170;-75
2022/03/16 00:09:18;;;;;;;12.80;9.48;;;8.00;72.50;;;;;;5047499;28;20067;-74
2022/03/16 00:11:44;;;;;;;13.82;9.48;;;8.00;72.50;;;;;;5045252;28;20047;-75
2022/03/16 00:14:09;;;;;;;12.13;8.93;;;8.00;72.60;;;;;;5049307;28;20056;-75
2022/03/16 00:16:35;;;;;;;12.43;9.10;;;8.00;72.70;;;;;;5047812;28;20091;-75
2022/03/16 00:19:01;;;;;;;12.13;9.20;;;8.00;72.80;;;;;;5048991;28;20033;-75
2022/03/16 00:21:26;;;;;;;12.55;9.93;;;8.00;72.90;;;;;;5048447;28;20044;-75
2022/03/16 00:23:52;;;;;;;15.02;10.23;;;8.00;73.00;;;;;;5048562;28;20025;-75
2022/03/16 00:26:17;;;;;;;12.85;9.55;;;8.10;73.00;;;;;;5045969;28;20036;-73
2022/03/16 00:28:43;;;;;;;13.45;10.00;;;8.20;73.00;;;;;;5047567;28;20064;-75
2022/03/16 00:31:08;;;;;;;11.50;9.02;;;8.20;73.10;;;;;;5047591;28;20061;-73
2022/03/16 00:33:34;;;;;;;11.68;9.52;;;8.20;73.20;;;;;;5048548;28;20066;-74
2022/03/16 00:35:59;;;;;;;12.60;9.30;;;8.20;73.20;;;;;;5045962;28;20049;-74
2022/03/16 00:38:25;;;;;;;13.63;9.80;;;8.20;73.20;;;;;;5048416;28;20025;-74
2022/03/16 00:40:50;;;;;;;12.98;10.25;;;8.20;73.20;;;;;;5046172;28;20040;-74
2022/03/16 00:43:16;;;;;;;13.57;10.10;;;8.20;73.20;;;;;;5048756;28;20498;-75
2022/03/16 00:45:42;;;;;;;13.68;9.85;;;8.30;73.40;;;;;;5047684;28;20032;-74
2022/03/16 00:48:07;;;;;;;15.35;11.25;;;8.20;73.30;;;;;;5048854;28;20021;-73
2022/03/16 00:50:34;;;;;;;13.45;10.20;;;8.30;73.40;;;;;;5045022;28;20171;-75
2022/03/16 00:53:00;;;;;;;14.02;10.13;;;8.20;73.20;;;;;;5048117;28;20025;-74
2022/03/16 00:55:26;;;;;;;14.00;9.88;;;8.20;73.30;;;;;;5046890;28;20375;-74
2022/03/16 00:57:51;;;;;;;15.80;10.75;;;8.20;73.30;;;;;;5048319;28;20025;-74
2022/03/16 01:00:17;;;;;;;14.50;10.65;;;8.20;73.40;;;;;;5044895;28;20052;-74
2022/03/16 01:02:42;;;;;;;14.48;10.52;;;8.10;73.30;;;;;;5047881;28;20453;-74
2022/03/16 01:05:08;;;;;;;12.50;9.65;;;8.00;73.40;;;;;;5046079;28;20433;-74
2022/03/16 01:07:34;;;;;;;13.20;9.88;;;8.00;73.60;;;;;;5048128;28;20028;-75
2022/03/16 01:09:59;;;;;;;14.20;10.50;;;7.90;73.70;;;;;;5047791;28;20151;-75
2022/03/16 01:12:25;;;;;;;13.02;9.55;;;7.90;73.80;;;;;;5050751;28;20021;-75
2022/03/16 01:14:50;;;;;;;13.65;10.95;;;7.90;73.90;;;;;;5049384;28;20037;-75
2022/03/16 01:17:16;;;;;;;14.15;11.10;;;7.80;74.10;;;;;;5051062;28;20392;-75
2022/03/16 01:19:42;;;;;;;14.93;10.57;;;7.80;74.20;;;;;;5048368;28;20361;-75
2022/03/16 01:22:07;;;;;;;16.08;11.57;;;7.90;74.30;;;;;;5052349;28;20097;-75
2022/03/16 01:24:33;;;;;;;17.15;11.52;;;7.90;74.30;;;;;;5051995;28;20150;-75
2022/03/16 01:26:59;;;;;;;12.68;9.70;;;7.80;74.30;;;;;;5049296;28;20361;-75
2022/03/16 01:29:25;;;;;;;16.85;12.10;;;7.80;74.60;;;;;;5051034;28;20027;-75
2022/03/16 01:31:52;;;;;;;18.65;12.70;;;7.80;74.70;;;;;;5042888;28;20422;-75
2022/03/16 01:34:18;;;;;;;15.90;11.68;;;7.80;74.80;;;;;;5041434;28;20176;-75
2022/03/16 01:36:44;;;;;;;19.30;12.73;;;7.90;74.70;;;;;;5044033;28;20103;-74
2022/03/16 01:39:09;;;;;;;13.65;10.82;;;7.90;74.60;;;;;;5050951;28;20214;-74
2022/03/16 01:41:35;;;;;;;16.30;12.38;;;7.90;74.60;;;;;;5047823;28;20065;-74
2022/03/16 01:44:01;;;;;;;16.55;12.52;;;7.90;74.70;;;;;;5051466;28;20025;-74
2022/03/16 01:46:27;;;;;;;17.48;12.50;;;7.90;74.80;;;;;;5048491;28;20032;-74
2022/03/16 01:48:52;;;;;;;20.73;14.32;;;7.90;74.80;;;;;;5049486;28;20025;-74
2022/03/16 01:51:18;;;;;;;17.30;13.05;;;7.90;75.10;;;;;;5048083;28;20024;-74
2022/03/16 01:53:44;;;;;;;15.27;11.85;;;7.90;75.20;;;;;;5049916;28;20021;-74
2022/03/16 01:56:10;;;;;;;18.30;13.75;;;7.90;75.20;;;;;;5043347;28;20450;-74
2022/03/16 01:58:35;;;;;;;20.02;14.23;;;7.90;75.30;;;;;;5052101;28;20025;-74
2022/03/16 02:01:01;;;;;;;20.48;14.95;;;7.80;75.50;;;;;;5049436;28;20072;-74
2022/03/16 02:03:27;;;;;;;18.23;13.02;;;7.80;75.80;;;;;;5050978;28;20020;-75
2022/03/16 02:05:54;;;;;;;22.95;15.82;;;7.80;75.90;;;;;;5046628;28;20025;-75
2022/03/16 02:08:19;;;;;;;20.02;14.98;;;7.80;76.10;;;;;;5050471;28;20142;-74
2022/03/16 02:10:45;;;;;;;17.75;13.48;;;7.70;76.50;;;;;;5049954;28;20033;-75
2022/03/16 02:13:11;;;;;;;21.40;15.55;;;7.70;76.70;;;;;;5046249;28;20021;-74
2022/03/16 02:15:37;;;;;;;20.55;15.85;;;7.70;77.00;;;;;;5044586;28;20071;-75
2022/03/16 02:18:03;;;;;;;17.15;13.43;;;7.60;77.30;;;;;;5050138;28;20033;-75
2022/03/16 02:20:28;;;;;;;18.35;12.88;;;7.60;77.30;;;;;;5050566;28;20052;-74
2022/03/16 02:22:55;;;;;;;19.35;13.48;;;7.70;77.20;;;;;;5049408;28;20033;-75
2022/03/16 02:25:21;;;;;;;17.33;12.73;;;7.60;77.20;;;;;;5049917;28;20112;-74
2022/03/16 02:27:46;;;;;;;18.98;14.50;;;7.60;77.30;;;;;;5050301;28;20108;-74
2022/03/16 02:30:12;;;;;;;17.27;13.18;;;7.60;77.50;;;;;;5049477;28;20021;-74
2022/03/16 02:32:38;;;;;;;20.17;16.13;;;7.60;77.60;;;;;;5047091;28;20074;-75
2022/03/16 02:35:03;;;;;;;18.02;13.90;;;7.50;77.90;;;;;;5049846;28;20037;-75
2022/03/16 02:37:29;;;;;;;16.48;12.82;;;7.50;78.10;;;;;;5048772;28;20580;-76
2022/03/16 02:39:55;;;;;;;18.63;13.77;;;7.50;78.20;;;;;;5049869;28;20032;-75
2022/03/16 02:42:22;;;;;;;17.75;13.80;;;7.50;78.10;;;;;;5049300;28;20052;-75
2022/03/16 02:44:47;;;;;;;19.42;14.63;;;7.50;78.20;;;;;;5049954;28;20094;-75
2022/03/16 02:47:13;;;;;;;21.80;16.30;;;7.40;78.20;;;;;;5046453;28;20057;-75
2022/03/16 02:49:38;;;;;;;15.68;12.88;;;7.40;78.60;;;;;;5050351;28;20554;-75
2022/03/16 02:52:11;;;;;;;15.02;11.65;;;7.40;78.50;;;;;;5049194;28;20427;-74
2022/03/16 02:54:36;;;;;;;15.73;12.00;;;7.40;78.40;;;;;;5049847;28;20068;-74
2022/03/16 02:57:02;;;;;;;18.02;12.98;;;7.40;78.40;;;;;;5046678;28;20170;-75
2022/03/16 02:59:28;;;;;;;20.50;15.10;;;7.30;78.50;;;;;;5049858;28;20029;-75
2022/03/16 03:01:53;;;;;;;19.95;14.98;;;7.30;78.80;;;;;;5048287;28;20197;-75
2022/03/16 03:04:19;;;;;;;26.70;20.05;;;7.20;79.20;;;;;;5040720;28;20071;-75
2022/03/16 03:06:50;;;;;;;28.00;20.27;;;7.10;79.80;;;;;;5048914;28;20028;-75
2022/03/16 03:09:16;;;;;;;24.13;18.07;;;7.10;80.30;;;;;;5049593;28;20086;-75
2022/03/16 03:11:41;;;;;;;25.40;19.38;;;7.00;80.50;;;;;;5047346;28;20677;-73
2022/03/16 03:14:07;;;;;;;25.77;18.75;;;7.00;80.80;;;;;;5047542;28;20033;-74
2022/03/16 03:16:32;;;;;;;26.33;19.25;;;6.90;80.90;;;;;;5048132;28;20056;-74
2022/03/16 03:18:58;;;;;;;27.08;19.88;;;6.80;81.10;;;;;;5048622;28;20111;-76
2022/03/16 03:21:23;;;;;;;21.92;16.70;;;6.80;81.20;;;;;;5047230;28;20033;-75
2022/03/16 03:23:49;;;;;;;22.13;16.50;;;6.80;81.10;;;;;;5048822;28;20029;-75
2022/03/16 03:26:14;;;;;;;21.67;15.88;;;6.90;80.90;;;;;;5047544;28;20017;-75
2022/03/16 03:28:40;;;;;;;23.45;17.83;;;6.90;80.90;;;;;;5048357;28;20036;-75
2022/03/16 03:31:05;;;;;;;23.33;18.13;;;6.90;81.20;;;;;;5049083;28;20021;-75
2022/03/16 03:33:31;;;;;;;24.80;18.23;;;6.90;81.20;;;;;;5048405;28;20453;-75
2022/03/16 03:35:56;;;;;;;18.23;14.40;;;6.90;81.20;;;;;;5048236;28;20033;-75
2022/03/16 03:38:22;;;;;;;20.08;15.10;;;6.90;81.10;;;;;;5048613;28;20495;-75
2022/03/16 03:40:47;;;;;;;27.35;20.52;;;6.90;81.10;;;;;;5046477;28;20044;-73
2022/03/16 03:43:13;;;;;;;24.25;18.00;;;7.00;81.10;;;;;;5048227;28;20111;-74
2022/03/16 03:45:39;;;;;;;27.95;21.38;;;7.00;81.20;;;;;;5048675;28;20025;-74
2022/03/16 03:48:04;;;;;;;20.00;15.30;;;6.90;81.40;;;;;;5047495;28;20032;-73
2022/03/16 03:50:30;;;;;;;26.52;19.73;;;7.00;81.30;;;;;;5047055;28;20040;-74
2022/03/16 03:52:55;;;;;;;23.92;17.70;;;7.00;81.40;;;;;;5046762;28;20387;-74
2022/03/16 03:55:22;;;;;;;21.90;15.68;;;7.00;81.20;;;;;;5040902;28;20106;-74
2022/03/16 03:57:48;;;;;;;21.55;16.85;;;7.00;80.90;;;;;;5043399;28;20025;-74
2022/03/16 04:00:14;;;;;;;27.42;19.95;;;7.10;81.00;;;;;;5042623;28;20307;-75
2022/03/16 04:02:47;;;;;;;24.77;18.92;;;7.10;80.90;;;;;;5046524;28;20069;-74
2022/03/16 04:05:12;;;;;;;24.90;19.60;;;7.00;81.00;;;;;;5041124;28;20487;-74
2022/03/16 04:07:38;;;;;;;25.77;20.35;;;7.00;81.20;;;;;;5048791;28;20078;-73
2022/03/16 04:10:04;;;;;;;23.67;18.20;;;7.00;81.30;;;;;;5045854;28;20025;-74
2022/03/16 04:12:30;;;;;;;23.13;17.33;;;6.90;81.40;;;;;;5047290;28;20455;-75
2022/03/16 04:14:55;;;;;;;23.65;17.92;;;6.90;81.40;;;;;;5045310;28;20048;-75
2022/03/16 04:17:21;;;;;;;28.02;21.20;;;6.90;81.60;;;;;;5049546;28;20119;-74
2022/03/16 04:19:46;;;;;;;23.83;17.58;;;6.90;81.70;;;;;;5042312;28;20024;-74
2022/03/16 04:22:12;;;;;;;24.90;17.65;;;6.90;81.80;;;;;;5048504;28;20029;-75
2022/03/16 04:24:37;;;;;;;24.20;18.85;;;6.80;81.90;;;;;;5048127;28;20083;-74
2022/03/16 04:27:03;;;;;;;25.45;19.15;;;6.80;81.90;;;;;;5048188;28;20028;-73
2022/03/16 04:29:29;;;;;;;25.85;19.85;;;6.80;82.30;;;;;;5048226;28;20020;-74
2022/03/16 04:31:54;;;;;;;25.20;17.52;;;6.70;82.70;;;;;;5048370;28;20045;-74
2022/03/16 04:34:20;;;;;;;22.17;16.58;;;6.80;82.60;;;;;;5043656;28;20036;-73
2022/03/16 04:36:45;;;;;;;21.20;15.55;;;6.80;82.30;;;;;;5047078;28;20028;-74
2022/03/16 04:39:12;;;;;;;21.50;15.00;;;6.90;82.30;;;;;;5047979;28;20582;-73
2022/03/16 04:41:38;;;;;;;26.05;18.02;;;6.90;81.90;;;;;;5047160;28;20499;-73
2022/03/16 04:44:03;;;;;;;21.33;15.82;;;6.90;81.90;;;;;;5048856;28;20033;-74
2022/03/16 04:46:29;;;;;;;22.85;15.70;;;6.90;81.70;;;;;;5051974;28;20032;-75
2022/03/16 04:48:54;;;;;;;22.17;16.55;;;6.90;81.60;;;;;;5051842;28;20468;-75
2022/03/16 04:51:20;;;;;;;23.58;16.95;;;6.90;81.50;;;;;;5052611;28;20028;-75
2022/03/16 04:53:45;;;;;;;18.23;13.95;;;6.90;81.70;;;;;;5049607;28;20029;-75
2022/03/16 04:56:12;;;;;;;23.55;17.50;;;6.90;81.50;;;;;;5052238;28;20040;-75
2022/03/16 04:58:38;;;;;;;21.30;15.90;;;6.80;81.70;;;;;;5050938;28;20027;-75
2022/03/16 05:01:04;;;;;;;18.80;14.80;;;6.80;81.80;;;;;;5045897;28;20140;-74
2022/03/16 05:03:29;;;;;;;28.05;18.58;;;6.80;81.70;;;;;;5049646;28;20075;-75
2022/03/16 05:05:55;;;;;;;19.00;14.50;;;6.80;81.80;;;;;;5050190;28;20026;-73
2022/03/16 05:08:20;;;;;;;18.23;13.75;;;6.80;81.90;;;;;;5051562;28;20495;-74
2022/03/16 05:10:46;;;;;;;18.23;14.20;;;6.80;81.90;;;;;;5051127;28;20025;-74
2022/03/16 05:13:11;;;;;;;21.63;15.02;;;6.80;81.70;;;;;;5052133;28;20021;-75
2022/03/16 05:15:37;;;;;;;18.38;13.48;;;6.70;81.70;;;;;;5050541;28;20022;-75
2022/03/16 05:18:03;;;;;;;22.83;16.63;;;6.70;81.90;;;;;;5052268;28;20410;-75
2022/03/16 05:20:28;;;;;;;22.05;17.77;;;6.70;82.10;;;;;;5050442;28;20424;-74
2022/03/16 05:22:54;;;;;;;20.05;15.52;;;6.60;82.20;;;;;;5050339;28;20040;-74
2022/03/16 05:25:27;;;;;;;24.50;18.92;;;6.60;82.30;;;;;;5047345;28;20013;-74
2022/03/16 05:27:54;;;;;;;21.77;16.70;;;6.60;82.50;;;;;;5051875;28;20055;-75
2022/03/16 05:30:22;;;;;;;19.25;14.60;;;6.60;82.70;;;;;;5049405;28;20032;-75
2022/03/16 05:32:51;;;;;;;23.88;17.50;;;6.50;82.70;;;;;;5048829;28;20476;-74
2022/03/16 05:35:17;;;;;;;25.92;19.42;;;6.50;82.80;;;;;;5049163;28;20380;-75
2022/03/16 05:37:42;;;;;;;26.30;19.38;;;6.50;83.10;;;;;;5045104;28;20017;-73
2022/03/16 05:40:09;;;;;;;27.58;21.27;;;6.50;83.20;;;;;;5050934;28;20017;-74
2022/03/16 05:42:34;;;;;;;21.17;15.77;;;6.50;83.20;;;;;;5051464;28;20403;-73
2022/03/16 05:45:01;;;;;;;29.00;21.98;;;6.60;83.20;;;;;;5047700;28;20203;-75
2022/03/16 05:47:27;;;;;;;26.73;19.85;;;6.60;83.10;;;;;;5052256;28;20028;-74
2022/03/16 05:49:54;;;;;;;27.13;21.55;;;6.60;83.10;;;;;;5042707;28;20016;-74
2022/03/16 05:52:21;;;;;;;23.75;18.10;;;6.60;83.30;;;;;;5047071;28;20681;-73
2022/03/16 05:54:48;;;;;;;24.77;19.70;;;6.60;83.20;;;;;;5048099;28;20035;-73
2022/03/16 05:57:15;;;;;;;30.60;22.15;;;6.60;83.20;;;;;;5050589;28;20367;-73
2022/03/16 05:59:41;;;;;;;30.02;22.27;;;6.60;83.40;;;;;;5046614;28;20025;-74
2022/03/16 06:02:07;;;;;;;31.95;23.80;;;6.60;83.70;;;;;;5045838;28;20044;-74
2022/03/16 06:04:32;;;;;;;33.75;25.17;;;6.60;84.10;;;;;;5044479;28;20377;-74
2022/03/16 06:06:58;;;;;;;32.00;24.00;;;6.60;84.40;;;;;;5045380;28;20337;-75
2022/03/16 06:09:23;;;;;;;30.38;23.02;;;6.60;84.40;;;;;;5042204;28;20304;-75
2022/03/16 06:11:49;;;;;;;26.92;20.70;;;6.60;84.20;;;;;;5045619;28;20032;-75
2022/03/16 06:14:14;;;;;;;30.08;22.98;;;6.60;84.10;;;;;;5050785;28;20472;-74
2022/03/16 06:16:39;;;;;;;35.97;26.13;;;6.60;84.10;;;;;;5048746;28;20028;-74
2022/03/16 06:19:05;;;;;;;30.25;22.73;;;6.60;84.30;;;;;;5050574;28;20475;-75
2022/03/16 06:21:30;;;;;;;29.60;22.13;;;6.60;84.20;;;;;;5040081;28;20037;-75
2022/03/16 06:23:56;;;;;;;27.33;20.83;;;6.60;84.10;;;;;;5048039;28;20502;-76
2022/03/16 06:26:21;;;;;;;27.33;20.75;;;6.60;84.00;;;;;;5042157;28;20119;-74
2022/03/16 06:28:47;;;;;;;28.10;20.13;;;6.60;83.90;;;;;;5043346;28;20064;-75
2022/03/16 06:31:13;;;;;;;28.05;19.92;;;6.70;83.70;;;;;;5046502;28;20156;-75
2022/03/16 06:33:38;;;;;;;28.08;20.27;;;6.70;83.60;;;;;;5048396;28;20029;-75
2022/03/16 06:36:04;;;;;;;29.88;22.00;;;6.70;83.50;;;;;;5044600;28;20021;-74
2022/03/16 06:38:29;;;;;;;33.90;24.17;;;6.70;83.60;;;;;;5046850;28;20025;-74
2022/03/16 06:40:55;;;;;;;32.05;23.45;;;6.60;83.60;;;;;;5042025;28;20031;-74
2022/03/16 06:43:21;;;;;;;25.33;17.98;;;6.60;83.70;;;;;;5048570;28;20384;-74
2022/03/16 06:45:46;;;;;;;30.50;21.10;;;6.70;83.70;;;;;;5047376;28;20025;-74
2022/03/16 06:48:12;;;;;;;26.77;19.63;;;6.80;83.50;;;;;;5048794;28;20028;-74
2022/03/16 06:50:38;;;;;;;26.92;19.90;;;6.80;83.20;;;;;;5047729;28;20388;-74
2022/03/16 06:53:03;;;;;;;28.40;22.27;;;6.90;83.10;;;;;;5048852;28;20037;-74
2022/03/16 06:55:29;;;;;;;26.48;20.60;;;6.90;83.10;;;;;;5039013;28;21009;-73
2022/03/16 06:57:55;;;;;;;23.17;15.70;;;6.90;83.00;;;;;;5039206;28;20029;-72
2022/03/16 07:00:20;;;;;;;23.98;18.23;;;7.00;82.90;;;;;;5045126;28;20356;-74
2022/03/16 07:02:57;;;;;;;24.90;18.88;;;7.00;82.70;;;;;;5041933;28;20128;-73
2022/03/16 07:05:41;;;;;;;26.17;20.00;;;7.00;82.40;;;;;;5043348;28;20087;-73
2022/03/16 07:08:11;;;;;;;29.90;20.92;;;7.00;82.20;;;;;;5047003;28;20049;-74
2022/03/16 07:10:38;;;;;;;31.33;23.17;;;7.10;82.10;;;;;;5045190;28;20104;-74
2022/03/16 07:13:04;;;;;;;26.48;19.58;;;7.10;82.10;;;;;;5048096;28;20456;-74
2022/03/16 07:15:34;;;;;;;26.92;20.20;;;7.20;82.10;;;;;;5047843;28;20040;-73
2022/03/16 07:18:03;;;;;;;25.75;19.40;;;7.20;81.80;;;;;;5047890;28;20491;-73
2022/03/16 07:20:29;;;;;;;22.95;17.58;;;7.30;81.70;;;;;;5043421;28;20258;-73
2022/03/16 07:23:11;;;;;;;27.23;18.85;;;7.30;81.40;;;;;;5047385;28;20070;-74
2022/03/16 07:25:38;;;;;;;25.92;17.75;;;7.40;81.30;;;;;;5041616;28;20499;-73
2022/03/16 07:28:05;;;;;;;21.23;15.82;;;7.40;80.90;;;;;;5047458;28;20376;-74
2022/03/16 07:30:32;;;;;;;24.50;17.80;;;7.50;80.80;;;;;;5048624;28;20036;-74
2022/03/16 07:32:58;;;;;;;26.48;19.20;;;7.50;80.50;;;;;;5045518;28;20479;-73
2022/03/16 07:35:26;;;;;;;23.50;17.15;;;7.60;80.30;;;;;;5039696;28;20047;-74
2022/03/16 07:37:53;;;;;;;21.80;16.23;;;7.70;80.20;;;;;;5043613;28;20024;-74
2022/03/16 07:40:18;;;;;;;23.15;17.98;;;7.80;79.90;;;;;;5046298;28;20102;-74
2022/03/16 07:42:46;;;;;;;25.58;19.58;;;7.80;79.60;;;;;;5046820;28;20037;-73
2022/03/16 07:45:11;;;;;;;25.52;19.42;;;7.80;79.20;;;;;;5042810;28;20021;-73
2022/03/16 07:47:37;;;;;;;24.83;18.98;;;7.90;79.00;;;;;;5044045;28;20083;-74
2022/03/16 07:50:02;;;;;;;24.50;18.77;;;7.90;78.80;;;;;;5042192;28;20021;-75
2022/03/16 07:52:28;;;;;;;22.33;17.35;;;8.00;78.70;;;;;;5041312;28;20379;-75
2022/03/16 07:54:54;;;;;;;23.88;17.30;;;8.10;78.50;;;;;;5042729;28;20029;-74
2022/03/16 07:57:19;;;;;;;21.17;16.70;;;8.20;78.30;;;;;;5049152;28;20025;-74
2022/03/16 07:59:45;;;;;;;22.27;16.17;;;8.30;78.00;;;;;;5047581;28;20056;-74
2022/03/16 08:02:16;;;;;;;22.27;16.67;;;8.30;77.70;;;;;;5045051;28;20160;-76
2022/03/16 08:04:41;;;;;;;22.17;16.50;;;8.40;77.70;;;;;;5044856;28;20407;-75
2022/03/16 08:07:09;;;;;;;20.67;15.88;;;8.50;77.30;;;;;;5044649;28;20029;-74
2022/03/16 08:09:35;;;;;;;19.55;15.38;;;8.50;77.00;;;;;;5048211;28;20020;-74
2022/03/16 08:12:00;;;;;;;21.67;16.30;;;8.60;76.70;;;;;;5047672;28;20032;-74
2022/03/16 08:14:26;;;;;;;22.95;15.48;;;8.70;76.30;;;;;;5040782;28;20025;-74
2022/03/16 08:16:52;;;;;;;21.00;15.02;;;8.70;76.20;;;;;;5041940;28;20021;-74
2022/03/16 08:19:19;;;;;;;18.42;14.65;;;8.80;75.90;;;;;;5045807;28;20406;-74
2022/03/16 08:21:45;;;;;;;19.60;15.43;;;8.90;75.80;;;;;;5050880;28;20040;-74
2022/03/16 08:24:10;;;;;;;20.50;15.55;;;9.00;75.40;;;;;;5051556;28;20020;-75
2022/03/16 08:26:36;;;;;;;20.40;16.08;;;9.10;75.00;;;;;;5049731;28;20495;-74
2022/03/16 08:29:02;;;;;;;20.02;15.25;;;9.20;75.00;;;;;;5050917;28;20047;-75
2022/03/16 08:31:27;;;;;;;22.88;16.38;;;9.30;74.30;;;;;;5048880;28;20119;-75
2022/03/16 08:33:53;;;;;;;19.95;14.35;;;9.30;73.90;;;;;;5051153;28;20033;-74
2022/03/16 08:36:18;;;;;;;18.33;14.90;;;9.40;73.90;;;;;;5045731;28;20102;-75
2022/03/16 08:38:44;;;;;;;20.77;15.77;;;9.50;73.40;;;;;;5043581;28;20029;-75
2022/03/16 08:41:10;;;;;;;15.27;12.38;;;9.60;73.10;;;;;;5049977;28;20127;-73
2022/03/16 08:43:37;;;;;;;19.38;14.82;;;9.70;73.10;;;;;;5047302;28;20492;-74
2022/03/16 08:46:04;;;;;;;17.58;13.20;;;9.80;72.50;;;;;;5047823;28;20029;-74
2022/03/16 08:48:30;;;;;;;18.63;12.73;;;9.90;72.30;;;;;;5043551;28;20340;-74
2022/03/16 08:50:56;;;;;;;16.77;13.10;;;9.90;71.70;;;;;;5043519;28;20035;-74
2022/03/16 08:53:21;;;;;;;16.17;12.13;;;10.00;71.70;;;;;;5050185;28;20387;-74
2022/03/16 08:55:47;;;;;;;17.48;13.50;;;10.10;71.50;;;;;;5045826;28;20468;-74
2022/03/16 08:58:14;;;;;;;15.95;11.05;;;10.10;70.60;;;;;;5046467;28;20036;-74
2022/03/16 09:00:42;;;;;;;14.82;10.70;;;10.10;70.60;;;;;;5047363;28;20488;-73
2022/03/16 09:03:08;;;;;;;14.52;10.30;;;10.20;70.00;;;;;;5045932;28;20034;-73
2022/03/16 09:05:34;;;;;;;14.60;10.63;;;10.30;69.50;;;;;;5042783;28;20491;-73
2022/03/16 09:08:00;;;;;;;14.35;10.25;;;10.30;69.10;;;;;;5045233;28;20036;-73
2022/03/16 09:10:26;;;;;;;15.13;10.88;;;10.40;68.70;;;;;;5046528;28;20100;-74
2022/03/16 09:12:52;;;;;;;13.00;9.55;;;10.40;68.20;;;;;;5045470;28;20550;-73
2022/03/16 09:15:19;;;;;;;13.88;10.60;;;10.50;68.10;;;;;;5044720;28;20287;-73
2022/03/16 09:17:44;;;;;;;14.60;10.48;;;10.50;67.70;;;;;;5043211;28;20091;-74
2022/03/16 09:20:10;;;;;;;11.15;8.27;;;10.60;67.40;;;;;;5046056;28;20033;-73
2022/03/16 09:22:35;;;;;;;13.10;10.35;;;10.70;67.70;;;;;;5046192;28;20044;-74
2022/03/16 09:25:01;;;;;;;12.70;9.98;;;10.70;66.90;;;;;;5044969;28;20135;-76
2022/03/16 09:27:27;;;;;;;14.40;10.35;;;10.80;66.50;;;;;;5044820;28;20431;-74
2022/03/16 09:29:55;;;;;;;13.60;9.82;;;10.80;66.00;;;;;;5043843;28;20026;-73
2022/03/16 09:32:21;;;;;;;12.60;8.68;;;10.80;66.20;;;;;;5042545;28;20025;-74
2022/03/16 09:34:47;;;;;;;12.30;9.95;;;10.90;66.40;;;;;;5039889;28;20470;-73
2022/03/16 09:37:13;;;;;;;11.52;9.32;;;10.90;65.70;;;;;;5042988;28;20121;-73
2022/03/16 09:39:39;;;;;;;13.98;9.95;;;10.90;65.90;;;;;;5041778;28;20919;-74
2022/03/16 09:42:05;;;;;;;12.63;10.10;;;10.90;65.30;;;;;;5038149;28;20330;-75
2022/03/16 09:44:31;;;;;;;12.13;9.57;;;10.90;65.60;;;;;;5047191;28;20491;-74
2022/03/16 09:46:57;;;;;;;14.07;10.05;;;11.00;65.50;;;;;;5042323;28;20037;-74
2022/03/16 09:49:26;;;;;;;13.38;9.70;;;11.20;65.40;;;;;;5043815;28;20365;-75
2022/03/16 09:51:53;;;;;;;12.45;9.80;;;11.30;65.10;;;;;;5042444;28;20033;-75
2022/03/16 09:54:19;;;;;;;13.75;10.10;;;11.30;64.90;;;;;;5043624;28;20074;-75
2022/03/16 09:56:45;;;;;;;13.35;9.93;;;11.40;64.90;;;;;;5046359;28;20045;-75
2022/03/16 09:59:11;;;;;;;13.63;10.77;;;11.40;64.50;;;;;;5043739;28;20108;-75
2022/03/16 10:01:37;;;;;;;12.93;9.63;;;11.40;64.40;;;;;;5041352;28;20088;-75
2022/03/16 10:04:06;;;;;;;12.30;10.40;;;11.40;64.30;;;;;;5042983;28;20029;-75
2022/03/16 10:06:35;;;;;;;14.20;9.68;;;11.50;64.00;;;;;;5040942;28;20029;-75
2022/03/16 10:15:13;;;;;;;13.30;10.30;;;11.40;63.60;;;;;;5045613;28;20090;-75
2022/03/16 10:17:43;;;;;;;11.43;9.02;;;11.40;64.30;;;;;;5036092;28;20464;-74
2022/03/16 10:20:20;;;;;;;13.02;9.98;;;11.50;64.40;;;;;;5044248;28;20021;-74
2022/03/16 10:23:06;;;;;;;18.23;11.07;;;11.60;63.90;;;;;;5041052;28;20033;-74
2022/03/16 10:25:39;;;;;;;13.80;10.35;;;11.60;63.60;;;;;;5042758;28;20072;-74
2022/03/16 10:28:22;;;;;;;14.25;9.75;;;11.70;63.70;;;;;;5046481;28;20025;-74
2022/03/16 10:30:49;;;;;;;15.85;11.18;;;11.70;63.80;;;;;;5043622;28;20029;-74
2022/03/16 10:33:16;;;;;;;15.38;10.38;;;11.70;63.50;;;;;;5048244;28;20159;-74
2022/03/16 10:36:05;;;;;;;14.20;11.00;;;11.80;63.60;;;;;;5044805;28;20079;-75
2022/03/16 10:38:35;;;;;;;13.88;10.63;;;11.90;63.60;;;;;;5043668;28;20160;-74
2022/03/16 10:46:34;;;;;;;12.38;9.75;;;12.00;63.30;;;;;;5046770;28;20498;-74
2022/03/16 10:46:49;;;;;;;13.70;10.50;;;12.10;62.70;;;;;;5045581;28;20391;-75
2022/03/16 10:49:20;;;;;;;13.18;10.18;;;12.10;62.70;;;;;;5041874;28;20021;-76
2022/03/16 10:51:59;;;;;;;13.17;9.90;;;12.20;62.50;;;;;;5048954;28;20044;-75
2022/03/16 10:54:25;;;;;;;11.27;8.90;;;12.30;62.50;;;;;;5045712;28;20037;-75
2022/03/16 10:56:53;;;;;;;13.07;9.60;;;12.40;62.50;;;;;;5052165;28;20025;-74
2022/03/16 10:59:20;;;;;;;11.38;9.20;;;12.50;62.30;;;;;;5038589;28;20025;-75
2022/03/16 11:01:48;;;;;;;13.85;9.93;;;12.70;62.20;;;;;;5040561;28;20547;-75
2022/03/16 11:04:13;;;;;;;14.90;11.35;;;12.80;61.60;;;;;;5043582;28;20329;-75
2022/03/16 11:06:41;;;;;;;13.50;9.80;;;12.80;61.10;;;;;;5049502;28;20071;-75
2022/03/16 11:09:10;;;;;;;14.30;10.55;;;12.80;60.30;;;;;;5044798;28;20034;-75
2022/03/16 11:14:20;;;;;;;11.77;9.48;;;12.90;60.40;;;;;;5045822;28;20087;-76
2022/03/16 11:16:47;;;;;;;10.60;8.95;;;12.90;60.20;;;;;;5046347;28;20487;-75
2022/03/16 11:19:17;;;;;;;13.68;10.30;;;13.10;60.20;;;;;;5045963;28;20021;-75
2022/03/16 11:22:10;;;;;;;14.25;10.57;;;13.20;59.80;;;;;;5050577;28;20075;-75
2022/03/16 11:24:40;;;;;;;11.50;8.27;;;13.20;59.00;;;;;;5042567;28;20047;-76
2022/03/16 11:27:45;;;;;;;14.15;10.85;;;13.40;59.20;;;;;;5053086;28;20469;-76
2022/03/16 11:30:13;;;;;;;13.90;9.50;;;13.40;58.20;;;;;;5046069;28;20180;-76
2022/03/16 11:32:43;;;;;;;12.65;9.18;;;13.60;57.90;;;;;;5054789;28;20035;-76
2022/03/16 11:35:16;;;;;;;12.75;9.77;;;13.80;57.10;;;;;;5045886;28;20025;-74
2022/03/16 11:37:48;;;;;;;11.32;8.57;;;13.80;56.20;;;;;;5051433;28;20314;-74
2022/03/16 11:40:22;;;;;;;11.10;8.00;;;13.90;55.60;;;;;;5041253;28;20024;-73
2022/03/16 11:43:12;;;;;;;11.93;8.65;;;14.00;55.50;;;;;;5043681;28;20033;-73
2022/03/16 11:45:59;;;;;;;11.55;8.52;;;14.10;55.30;;;;;;5042554;28;20471;-73
2022/03/16 11:48:28;;;;;;;12.80;9.77;;;14.30;55.10;;;;;;5049485;28;20483;-74
2022/03/16 11:51:09;;;;;;;11.55;7.80;;;14.30;54.10;;;;;;5046311;28;20017;-75
2022/03/16 11:56:26;;;;;;;11.18;8.55;;;14.30;53.70;;;;;;5046184;28;20049;-75
2022/03/16 11:59:02;;;;;;;9.02;7.47;;;14.40;52.70;;;;;;5045718;28;20024;-74
2022/03/16 12:01:29;;;;;;;9.77;7.35;;;14.50;52.10;;;;;;5046439;28;20037;-75
2022/03/16 12:04:12;;;;;;;10.00;7.82;;;14.60;52.30;;;;;;5047137;28;20144;-75
2022/03/16 12:07:01;;;;;;;10.38;8.60;;;14.80;52.70;;;;;;5044735;28;20055;-74
2022/03/16 12:09:33;;;;;;;9.57;7.70;;;14.80;52.10;;;;;;5042296;28;20028;-74
2022/03/16 12:15:15;;;;;;;10.52;8.73;;;14.90;52.80;;;;;;5040185;28;20561;-75
2022/03/16 12:17:56;;;;;;;9.77;7.53;;;15.10;52.50;;;;;;5045623;28;20544;-75
2022/03/16 12:20:27;;;;;;;9.63;7.78;;;15.20;51.80;;;;;;5043801;28;20033;-75
2022/03/16 12:23:02;;;;;;;9.67;8.13;;;15.40;51.00;;;;;;5047993;28;20025;-75
2022/03/16 12:25:34;;;;;;;12.38;7.70;;;15.30;50.10;;;;;;5043624;28;20528;-75
2022/03/16 12:30:58;;;;;;;11.32;8.43;;;15.20;50.80;;;;;;5042669;28;20008;-73
2022/03/16 12:33:26;;;;;;;8.75;7.10;;;15.10;50.30;;;;;;5040019;28;20032;-74
2022/03/16 12:36:03;;;;;;;9.77;7.82;;;15.10;50.90;;;;;;5043802;28;20472;-75
2022/03/16 12:38:30;;;;;;;8.57;7.07;;;15.10;51.30;;;;;;5039174;28;20028;-75
2022/03/16 12:43:46;;;;;;;11.10;8.50;;;15.20;51.20;;;;;;5047341;28;20051;-75
2022/03/16 12:46:11;;;;;;;9.93;7.45;;;15.30;51.00;;;;;;5042521;28;20468;-75
2022/03/16 12:48:38;;;;;;;11.15;8.20;;;15.30;50.70;;;;;;5044995;28;20083;-76
2022/03/16 12:51:04;;;;;;;9.30;7.78;;;15.20;50.50;;;;;;5042043;28;20078;-75
2022/03/16 12:53:45;;;;;;;9.40;7.35;;;15.20;50.70;;;;;;5048816;28;20078;-76
2022/03/16 12:56:20;;;;;;;11.50;8.00;;;15.30;50.80;;;;;;5043623;28;20048;-75
2022/03/16 12:58:52;;;;;;;10.07;7.50;;;15.10;50.80;;;;;;5043071;28;20033;-74
2022/03/16 13:01:19;;;;;;;9.25;7.53;;;15.10;51.10;;;;;;5046620;28;20400;-75
2022/03/16 13:03:45;;;;;;;9.30;7.47;;;15.10;51.30;;;;;;5043647;28;20104;-76